Terminal Aerodrome Forecast
Issued by NWS

Home | Current Version | Previous Version | Text Only | Print | Product List | Glossary On
Versions: 1 2 3 4 5 6 7 8 9 10 11 12 13 14 15 16 17 18 19 20 21
000
FTAK31 PAJN 201700
TAFAYA
TAF
PAYA 201734Z 2018/2118 08005KT P6SM -RA SCT020 BKN045
     FM202100 12007KT P6SM -RA SCT015 OVC035
      TEMPO 2021/2101 6SM -RA BKN015 OVC020
     FM210200 09005KT P6SM VCSH SCT020 OVC040
     FM211100 VRB03KT 6SM BCFG FEW005 BKN040
     FM211700 06010KT P6SM -RA SCT020 BKN040 OVC060
      AMD LTD TO CLD VIS AND WIND 2101/2110=

USA.gov is the U.S. government's official web portal to all federal, state and local government web resources and services.